VTK601 ENAT-ENSB
Flight info
| Callsign | VTK601 |
|---|---|
| Flight time | 1h 29m |
| Altitude | 38000 |
| Route | ELSEV DCT OLOLI DCT AMPIS |
| Aircraft | B738/M-SDE2E3FGHIRWXY/LB1 |
Departure
| Time | 2026-05-04 13:37 |
|---|---|
| Airport | Alta Airport (ENAT) |
Arrival
| Time | 2026-05-04 15:07 |
|---|---|
| Airport | Svalbard Airport, Longyear (ENSB) |
| Time | Latitude | Longitude | Altitude | Speed | Heading |
|---|---|---|---|---|---|
| 2026-05-04 13:21 | 69.97823 | 23.34810 | 34 ft | 0 kts | 211° |
| 2026-05-04 13:31 | 69.97839 | 23.34838 | 34 ft | 4 kts | 211° |
| 2026-05-04 13:31 | 69.97861 | 23.34878 | 34 ft | 4 kts | 202° |
| 2026-05-04 13:31 | 69.97887 | 23.34883 | 34 ft | 4 kts | 156° |
| 2026-05-04 13:32 | 69.97902 | 23.34849 | 34 ft | 0 kts | 119° |
| 2026-05-04 13:33 | 69.97899 | 23.34861 | 34 ft | 4 kts | 119° |
| 2026-05-04 13:33 | 69.97873 | 23.35033 | 32 ft | 12 kts | 100° |
| 2026-05-04 13:33 | 69.97899 | 23.35276 | 34 ft | 13 kts | 46° |
| 2026-05-04 13:34 | 69.97941 | 23.35493 | 35 ft | 13 kts | 96° |
| 2026-05-04 13:34 | 69.97903 | 23.35737 | 33 ft | 15 kts | 121° |
| 2026-05-04 13:34 | 69.97840 | 23.36041 | 30 ft | 22 kts | 121° |
| 2026-05-04 13:34 | 69.97750 | 23.36478 | 35 ft | 28 kts | 121° |
| 2026-05-04 13:35 | 69.97638 | 23.37015 | 34 ft | 34 kts | 121° |
| 2026-05-04 13:35 | 69.97363 | 23.38339 | 34 ft | 39 kts | 121° |
| 2026-05-04 13:35 | 69.97273 | 23.38811 | 36 ft | 16 kts | 103° |
| 2026-05-04 13:36 | 69.97234 | 23.38948 | 37 ft | 7 kts | 235° |
| 2026-05-04 13:36 | 69.97261 | 23.38821 | 35 ft | 8 kts | 310° |
| 2026-05-04 13:36 | 69.97295 | 23.38671 | 36 ft | 16 kts | 301° |
| 2026-05-04 13:36 | 69.97493 | 23.37719 | 36 ft | 92 kts | 301° |
| 2026-05-04 13:37 | 69.97941 | 23.35561 | 52 ft | 153 kts | 301° |
| 2026-05-04 13:37 | 69.98526 | 23.32680 | 492 ft | 180 kts | 303° |
| 2026-05-04 13:37 | 69.99279 | 23.29397 | 979 ft | 206 kts | 307° |
| 2026-05-04 13:37 | 70.00001 | 23.27512 | 1298 ft | 216 kts | 334° |
| 2026-05-04 13:38 | 70.02061 | 23.25887 | 1773 ft | 244 kts | 333° |
| 2026-05-04 13:38 | 70.03417 | 23.22856 | 2665 ft | 248 kts | 318° |
| 2026-05-04 13:38 | 70.04769 | 23.19514 | 3447 ft | 260 kts | 320° |
| 2026-05-04 13:38 | 70.06197 | 23.16198 | 4332 ft | 262 kts | 321° |
| 2026-05-04 13:39 | 70.07647 | 23.12928 | 5235 ft | 264 kts | 322° |
| 2026-05-04 13:39 | 70.09124 | 23.09656 | 6100 ft | 267 kts | 321° |
| 2026-05-04 13:39 | 70.10618 | 23.06377 | 6934 ft | 270 kts | 322° |
| 2026-05-04 13:39 | 70.12138 | 23.03071 | 7751 ft | 274 kts | 322° |
| 2026-05-04 13:40 | 70.13675 | 22.99731 | 8592 ft | 276 kts | 322° |
| 2026-05-04 13:40 | 70.15233 | 22.96340 | 9420 ft | 280 kts | 322° |
| 2026-05-04 13:40 | 70.16823 | 22.92878 | 10006 ft | 292 kts | 321° |
| 2026-05-04 13:40 | 70.18669 | 22.89810 | 10181 ft | 321 kts | 341° |
| 2026-05-04 13:41 | 70.20934 | 22.88905 | 10673 ft | 336 kts | 359° |
| 2026-05-04 13:41 | 70.23266 | 22.89007 | 11573 ft | 335 kts | 0° |
| 2026-05-04 13:41 | 70.25606 | 22.89177 | 12356 ft | 340 kts | 1° |
| 2026-05-04 13:42 | 70.30408 | 22.89542 | 13870 ft | 349 kts | 0° |
| 2026-05-04 13:42 | 70.32853 | 22.89708 | 14605 ft | 355 kts | 360° |
| 2026-05-04 13:42 | 70.35340 | 22.89865 | 15319 ft | 360 kts | 359° |
| 2026-05-04 13:42 | 70.37858 | 22.90014 | 16045 ft | 365 kts | 359° |
| 2026-05-04 13:43 | 70.40419 | 22.90162 | 16786 ft | 370 kts | 358° |
| 2026-05-04 13:43 | 70.43016 | 22.90306 | 17518 ft | 376 kts | 358° |
| 2026-05-04 13:43 | 70.45648 | 22.90450 | 18202 ft | 381 kts | 358° |
| 2026-05-04 13:43 | 70.48307 | 22.90594 | 18924 ft | 382 kts | 359° |
| 2026-05-04 13:44 | 70.50941 | 22.90742 | 19841 ft | 379 kts | 359° |
| 2026-05-04 13:44 | 70.53605 | 22.90890 | 20359 ft | 386 kts | 358° |
| 2026-05-04 13:44 | 70.56314 | 22.91038 | 20886 ft | 393 kts | 358° |
| 2026-05-04 13:44 | 70.59060 | 22.91189 | 21476 ft | 397 kts | 358° |
| 2026-05-04 13:45 | 70.61835 | 22.91342 | 22119 ft | 400 kts | 358° |
| 2026-05-04 13:45 | 70.64634 | 22.91500 | 22691 ft | 405 kts | 358° |
| 2026-05-04 13:45 | 70.67460 | 22.91663 | 23229 ft | 409 kts | 357° |
| 2026-05-04 13:45 | 70.70324 | 22.91826 | 23682 ft | 413 kts | 358° |
| 2026-05-04 13:46 | 70.73209 | 22.91987 | 24167 ft | 416 kts | 358° |
| 2026-05-04 13:46 | 70.76112 | 22.92152 | 24629 ft | 419 kts | 358° |
| 2026-05-04 13:46 | 70.79040 | 22.92316 | 25077 ft | 423 kts | 358° |
| 2026-05-04 13:46 | 70.81996 | 22.92482 | 25509 ft | 426 kts | 358° |
| 2026-05-04 13:47 | 70.84973 | 22.92652 | 25967 ft | 429 kts | 359° |
| 2026-05-04 13:47 | 70.87962 | 22.92823 | 26455 ft | 431 kts | 359° |
| 2026-05-04 13:47 | 70.90970 | 22.92997 | 26883 ft | 434 kts | 359° |
| 2026-05-04 13:47 | 70.94001 | 22.93173 | 27263 ft | 438 kts | 359° |
| 2026-05-04 13:48 | 70.97061 | 22.93351 | 27637 ft | 441 kts | 359° |
| 2026-05-04 13:48 | 71.00141 | 22.93529 | 28033 ft | 444 kts | 359° |
| 2026-05-04 13:48 | 71.03249 | 22.93711 | 28421 ft | 447 kts | 359° |
| 2026-05-04 13:48 | 71.06370 | 22.93893 | 28774 ft | 450 kts | 359° |
| 2026-05-04 13:49 | 71.09511 | 22.94075 | 29130 ft | 453 kts | 359° |
| 2026-05-04 13:49 | 71.12630 | 22.93947 | 29473 ft | 455 kts | 353° |
| 2026-05-04 13:49 | 71.15773 | 22.92690 | 29763 ft | 457 kts | 350° |
| 2026-05-04 13:49 | 71.18926 | 22.91098 | 30005 ft | 460 kts | 349° |
| 2026-05-04 13:50 | 71.22089 | 22.89397 | 30268 ft | 463 kts | 349° |
| 2026-05-04 13:50 | 71.25266 | 22.87681 | 30561 ft | 464 kts | 349° |
| 2026-05-04 13:50 | 71.28452 | 22.85988 | 30832 ft | 466 kts | 349° |
| 2026-05-04 13:50 | 71.31656 | 22.84318 | 31111 ft | 468 kts | 349° |
| 2026-05-04 13:51 | 71.33788 | 22.83222 | 31326 ft | 468 kts | 350° |
| 2026-05-04 13:51 | 71.36996 | 22.81589 | 31691 ft | 467 kts | 350° |
| 2026-05-04 13:51 | 71.40205 | 22.79969 | 32042 ft | 467 kts | 350° |
| 2026-05-04 13:51 | 71.43413 | 22.78353 | 32347 ft | 468 kts | 350° |
| 2026-05-04 13:52 | 71.49850 | 22.75094 | 33005 ft | 468 kts | 349° |
| 2026-05-04 13:52 | 71.53063 | 22.73460 | 33322 ft | 468 kts | 349° |
| 2026-05-04 13:52 | 71.56278 | 22.71819 | 33628 ft | 468 kts | 349° |
| 2026-05-04 13:53 | 71.59504 | 22.70165 | 33883 ft | 469 kts | 349° |
| 2026-05-04 13:53 | 71.62723 | 22.68511 | 34150 ft | 468 kts | 350° |
| 2026-05-04 13:53 | 71.65934 | 22.66852 | 34390 ft | 468 kts | 350° |
| 2026-05-04 13:54 | 71.72372 | 22.63501 | 34870 ft | 469 kts | 350° |
| 2026-05-04 13:54 | 71.75591 | 22.61817 | 35136 ft | 468 kts | 350° |
| 2026-05-04 13:54 | 71.82021 | 22.58431 | 35589 ft | 469 kts | 350° |
| 2026-05-04 13:55 | 71.85243 | 22.56732 | 35830 ft | 469 kts | 350° |
| 2026-05-04 13:55 | 71.91679 | 22.53320 | 36274 ft | 469 kts | 350° |
| 2026-05-04 13:55 | 71.94896 | 22.51607 | 36498 ft | 469 kts | 350° |
| 2026-05-04 13:56 | 71.98119 | 22.49884 | 36725 ft | 469 kts | 350° |
| 2026-05-04 13:56 | 72.01296 | 22.48178 | 36951 ft | 469 kts | 350° |
| 2026-05-04 13:56 | 72.07727 | 22.44702 | 37413 ft | 468 kts | 350° |
| 2026-05-04 13:57 | 72.10944 | 22.42955 | 37611 ft | 469 kts | 350° |
| 2026-05-04 13:57 | 72.14160 | 22.41205 | 37797 ft | 469 kts | 350° |
| 2026-05-04 13:58 | 72.23812 | 22.35908 | 38361 ft | 469 kts | 350° |
| 2026-05-04 13:58 | 72.30250 | 22.32344 | 38648 ft | 469 kts | 350° |
| 2026-05-04 13:58 | 72.33466 | 22.30554 | 38798 ft | 469 kts | 350° |
| 2026-05-04 13:59 | 72.36685 | 22.28754 | 38928 ft | 469 kts | 350° |
| 2026-05-04 13:59 | 72.39906 | 22.26947 | 39062 ft | 469 kts | 350° |
| 2026-05-04 13:59 | 72.46345 | 22.23318 | 39337 ft | 469 kts | 351° |
| 2026-05-04 14:00 | 72.49558 | 22.21497 | 39482 ft | 469 kts | 350° |
| 2026-05-04 14:00 | 72.55995 | 22.17829 | 39606 ft | 468 kts | 350° |
| 2026-05-04 14:00 | 72.59203 | 22.15992 | 39616 ft | 468 kts | 350° |
| 2026-05-04 14:01 | 72.65584 | 22.12321 | 39625 ft | 469 kts | 350° |
| 2026-05-04 14:02 | 72.75247 | 22.06706 | 39633 ft | 471 kts | 350° |
| 2026-05-04 14:02 | 72.81705 | 22.02919 | 39626 ft | 472 kts | 350° |
| 2026-05-04 14:03 | 72.88177 | 21.99095 | 39631 ft | 472 kts | 350° |
| 2026-05-04 14:03 | 72.94655 | 21.95239 | 39630 ft | 472 kts | 350° |
| 2026-05-04 14:04 | 73.04367 | 21.89398 | 39635 ft | 472 kts | 350° |
| 2026-05-04 14:04 | 73.10784 | 21.85503 | 39648 ft | 471 kts | 350° |
| 2026-05-04 14:05 | 73.20451 | 21.79585 | 39640 ft | 470 kts | 350° |
| 2026-05-04 14:06 | 73.26882 | 21.75611 | 39659 ft | 469 kts | 350° |
| 2026-05-04 14:06 | 73.33295 | 21.71623 | 39652 ft | 468 kts | 350° |
| 2026-05-04 14:07 | 73.39693 | 21.67608 | 39665 ft | 467 kts | 350° |
| 2026-05-04 14:07 | 73.46085 | 21.63562 | 39659 ft | 466 kts | 350° |
| 2026-05-04 14:08 | 73.52464 | 21.59499 | 39667 ft | 466 kts | 350° |
| 2026-05-04 14:08 | 73.58802 | 21.55427 | 39678 ft | 465 kts | 350° |
| 2026-05-04 14:09 | 73.68354 | 21.49235 | 39684 ft | 465 kts | 350° |
| 2026-05-04 14:10 | 73.77907 | 21.42968 | 39695 ft | 465 kts | 350° |
| 2026-05-04 14:10 | 73.84277 | 21.38752 | 39695 ft | 465 kts | 350° |
| 2026-05-04 14:11 | 73.90645 | 21.34498 | 39693 ft | 466 kts | 350° |
| 2026-05-04 14:11 | 74.00165 | 21.28081 | 39695 ft | 467 kts | 350° |
| 2026-05-04 14:12 | 74.06550 | 21.23730 | 39708 ft | 467 kts | 350° |
| 2026-05-04 14:13 | 74.16125 | 21.17148 | 39707 ft | 467 kts | 350° |
| 2026-05-04 14:13 | 74.22513 | 21.12723 | 39718 ft | 467 kts | 350° |
| 2026-05-04 14:14 | 74.28892 | 21.08258 | 39729 ft | 467 kts | 350° |
| 2026-05-04 14:14 | 74.38474 | 21.01484 | 39740 ft | 467 kts | 350° |
| 2026-05-04 14:15 | 74.51229 | 20.92340 | 39740 ft | 467 kts | 350° |
| 2026-05-04 14:16 | 74.60785 | 20.85379 | 39753 ft | 466 kts | 351° |
| 2026-05-04 14:17 | 74.70332 | 20.78346 | 39766 ft | 466 kts | 350° |
| 2026-05-04 14:18 | 74.79867 | 20.71238 | 39767 ft | 465 kts | 350° |
| 2026-05-04 14:19 | 74.92547 | 20.61647 | 39783 ft | 464 kts | 350° |
| 2026-05-04 14:19 | 74.98870 | 20.56797 | 39784 ft | 463 kts | 350° |
| 2026-05-04 14:20 | 75.05151 | 20.51944 | 39793 ft | 463 kts | 350° |
| 2026-05-04 14:20 | 75.11468 | 20.47021 | 39800 ft | 463 kts | 350° |
| 2026-05-04 14:21 | 75.20933 | 20.39566 | 39809 ft | 463 kts | 349° |
| 2026-05-04 14:21 | 75.27242 | 20.34552 | 39807 ft | 462 kts | 350° |
| 2026-05-04 14:22 | 75.33540 | 20.29492 | 39811 ft | 462 kts | 350° |
| 2026-05-04 14:22 | 75.39828 | 20.24398 | 39825 ft | 461 kts | 349° |
| 2026-05-04 14:23 | 75.49253 | 20.16687 | 39829 ft | 461 kts | 349° |
| 2026-05-04 14:24 | 75.55535 | 20.11488 | 39842 ft | 461 kts | 350° |
| 2026-05-04 14:24 | 75.61824 | 20.06248 | 39842 ft | 462 kts | 349° |
| 2026-05-04 14:25 | 75.68117 | 20.00946 | 39846 ft | 462 kts | 349° |
| 2026-05-04 14:25 | 75.77530 | 19.92928 | 39841 ft | 463 kts | 349° |
| 2026-05-04 14:26 | 75.83831 | 19.87505 | 39867 ft | 463 kts | 349° |
| 2026-05-04 14:26 | 75.90128 | 19.82037 | 39871 ft | 463 kts | 349° |
| 2026-05-04 14:27 | 75.96428 | 19.76522 | 39879 ft | 463 kts | 350° |
| 2026-05-04 14:27 | 76.02719 | 19.70968 | 39872 ft | 463 kts | 349° |
| 2026-05-04 14:28 | 76.09018 | 19.65352 | 39869 ft | 463 kts | 349° |
| 2026-05-04 14:28 | 76.15303 | 19.59688 | 39872 ft | 462 kts | 349° |
| 2026-05-04 14:29 | 76.26960 | 19.49054 | 39909 ft | 461 kts | 349° |
| 2026-05-04 14:34 | 76.32375 | 19.44053 | 39903 ft | 461 kts | 349° |
| 2026-05-04 14:34 | 76.38641 | 19.38211 | 39909 ft | 460 kts | 349° |
| 2026-05-04 14:35 | 76.44899 | 19.32334 | 39794 ft | 463 kts | 349° |
| 2026-05-04 14:35 | 76.48071 | 19.29337 | 39282 ft | 468 kts | 349° |
| 2026-05-04 14:35 | 76.51201 | 19.26358 | 38773 ft | 467 kts | 349° |
| 2026-05-04 14:35 | 76.54370 | 19.23323 | 38109 ft | 467 kts | 349° |
| 2026-05-04 14:36 | 76.57544 | 19.20274 | 37478 ft | 466 kts | 349° |
| 2026-05-04 14:36 | 76.60706 | 19.17225 | 36861 ft | 465 kts | 349° |
| 2026-05-04 14:36 | 76.63855 | 19.14173 | 36285 ft | 464 kts | 349° |
| 2026-05-04 14:36 | 76.66998 | 19.11113 | 35680 ft | 463 kts | 350° |
| 2026-05-04 14:37 | 76.70151 | 19.08030 | 35162 ft | 461 kts | 350° |
| 2026-05-04 14:37 | 76.73262 | 19.04969 | 34699 ft | 457 kts | 349° |
| 2026-05-04 14:37 | 76.76356 | 19.01912 | 34247 ft | 454 kts | 350° |
| 2026-05-04 14:37 | 76.79424 | 18.98863 | 33757 ft | 451 kts | 350° |
| 2026-05-04 14:38 | 76.82463 | 18.95829 | 33243 ft | 446 kts | 350° |
| 2026-05-04 14:38 | 76.85478 | 18.92806 | 32777 ft | 442 kts | 350° |
| 2026-05-04 14:38 | 76.88456 | 18.89804 | 32345 ft | 436 kts | 350° |
| 2026-05-04 14:38 | 76.91399 | 18.86827 | 31878 ft | 432 kts | 350° |
| 2026-05-04 14:39 | 76.94311 | 18.83870 | 31485 ft | 426 kts | 350° |
| 2026-05-04 14:39 | 76.97188 | 18.80935 | 31060 ft | 422 kts | 350° |
| 2026-05-04 14:39 | 77.00035 | 18.78020 | 30640 ft | 418 kts | 350° |
| 2026-05-04 14:40 | 77.05644 | 18.72236 | 29772 ft | 410 kts | 351° |
| 2026-05-04 14:40 | 77.08369 | 18.69409 | 29323 ft | 404 kts | 351° |
| 2026-05-04 14:40 | 77.11089 | 18.66572 | 28871 ft | 399 kts | 351° |
| 2026-05-04 14:40 | 77.13772 | 18.63756 | 28471 ft | 392 kts | 351° |
| 2026-05-04 14:41 | 77.16413 | 18.60975 | 28070 ft | 387 kts | 351° |
| 2026-05-04 14:41 | 77.19019 | 18.58224 | 27658 ft | 383 kts | 351° |
| 2026-05-04 14:41 | 77.24146 | 18.52787 | 26850 ft | 375 kts | 351° |
| 2026-05-04 14:42 | 77.29178 | 18.47406 | 26050 ft | 368 kts | 351° |
| 2026-05-04 14:42 | 77.31658 | 18.44738 | 25663 ft | 364 kts | 351° |
| 2026-05-04 14:42 | 77.34114 | 18.42081 | 25268 ft | 361 kts | 352° |
| 2026-05-04 14:43 | 77.36546 | 18.39441 | 24899 ft | 358 kts | 351° |
| 2026-05-04 14:43 | 77.38145 | 18.37699 | 24646 ft | 356 kts | 351° |
| 2026-05-04 14:43 | 77.41354 | 18.34193 | 24136 ft | 353 kts | 351° |
| 2026-05-04 14:43 | 77.42930 | 18.32464 | 23880 ft | 351 kts | 351° |
| 2026-05-04 14:44 | 77.45298 | 18.29858 | 23505 ft | 349 kts | 352° |
| 2026-05-04 14:44 | 77.47651 | 18.27259 | 23061 ft | 347 kts | 351° |
| 2026-05-04 14:44 | 77.49983 | 18.24671 | 22703 ft | 343 kts | 351° |
| 2026-05-04 14:44 | 77.52289 | 18.22100 | 22324 ft | 339 kts | 351° |
| 2026-05-04 14:45 | 77.54570 | 18.19546 | 21972 ft | 335 kts | 351° |
| 2026-05-04 14:45 | 77.56827 | 18.17014 | 21615 ft | 332 kts | 352° |
| 2026-05-04 14:45 | 77.59064 | 18.14497 | 21250 ft | 329 kts | 351° |
| 2026-05-04 14:45 | 77.61278 | 18.12000 | 20881 ft | 326 kts | 351° |
| 2026-05-04 14:46 | 77.63475 | 18.09511 | 20539 ft | 323 kts | 351° |
| 2026-05-04 14:46 | 77.65653 | 18.07035 | 20177 ft | 322 kts | 351° |
| 2026-05-04 14:46 | 77.67819 | 18.04561 | 19847 ft | 319 kts | 351° |
| 2026-05-04 14:46 | 77.69971 | 18.02095 | 19495 ft | 317 kts | 351° |
| 2026-05-04 14:47 | 77.72101 | 17.99647 | 19164 ft | 314 kts | 350° |
| 2026-05-04 14:47 | 77.74216 | 17.97204 | 18821 ft | 312 kts | 351° |
| 2026-05-04 14:47 | 77.76320 | 17.94769 | 18469 ft | 311 kts | 350° |
| 2026-05-04 14:47 | 77.78412 | 17.92333 | 18115 ft | 308 kts | 351° |
| 2026-05-04 14:48 | 77.80482 | 17.89923 | 17718 ft | 307 kts | 349° |
| 2026-05-04 14:48 | 77.82559 | 17.87495 | 17365 ft | 305 kts | 349° |
| 2026-05-04 14:48 | 77.84612 | 17.85085 | 17003 ft | 304 kts | 349° |
| 2026-05-04 14:48 | 77.86656 | 17.82678 | 16666 ft | 302 kts | 349° |
| 2026-05-04 14:49 | 77.88686 | 17.80279 | 16324 ft | 300 kts | 349° |
| 2026-05-04 14:49 | 77.90707 | 17.77880 | 15972 ft | 299 kts | 349° |
| 2026-05-04 14:49 | 77.92717 | 17.75483 | 15648 ft | 297 kts | 349° |
| 2026-05-04 14:49 | 77.94690 | 17.72640 | 15286 ft | 299 kts | 338° |
| 2026-05-04 14:50 | 77.96378 | 17.66815 | 14997 ft | 302 kts | 316° |
| 2026-05-04 14:50 | 77.97630 | 17.58729 | 14682 ft | 305 kts | 306° |
| 2026-05-04 14:50 | 77.98778 | 17.50042 | 14340 ft | 309 kts | 305° |
| 2026-05-04 14:50 | 77.99916 | 17.41200 | 14019 ft | 314 kts | 304° |
| 2026-05-04 14:51 | 78.01068 | 17.32206 | 13621 ft | 318 kts | 305° |
| 2026-05-04 14:51 | 78.02223 | 17.23190 | 13271 ft | 314 kts | 305° |
| 2026-05-04 14:51 | 78.03366 | 17.14287 | 12918 ft | 312 kts | 305° |
| 2026-05-04 14:51 | 78.04498 | 17.05455 | 12601 ft | 308 kts | 305° |
| 2026-05-04 14:52 | 78.05623 | 16.96678 | 12250 ft | 306 kts | 305° |
| 2026-05-04 14:52 | 78.06738 | 16.87965 | 11934 ft | 303 kts | 305° |
| 2026-05-04 14:52 | 78.07838 | 16.79319 | 11584 ft | 300 kts | 305° |
| 2026-05-04 14:52 | 78.08923 | 16.70748 | 11267 ft | 298 kts | 305° |
| 2026-05-04 14:53 | 78.10000 | 16.62222 | 10939 ft | 296 kts | 305° |
| 2026-05-04 14:53 | 78.11075 | 16.53711 | 10617 ft | 295 kts | 304° |
| 2026-05-04 14:53 | 78.12137 | 16.45246 | 10356 ft | 292 kts | 305° |
| 2026-05-04 14:53 | 78.13170 | 16.36960 | 10253 ft | 282 kts | 304° |
| 2026-05-04 14:54 | 78.14170 | 16.28914 | 10110 ft | 274 kts | 305° |
| 2026-05-04 14:54 | 78.15138 | 16.21100 | 10006 ft | 265 kts | 305° |
| 2026-05-04 14:54 | 78.16090 | 16.13417 | 9740 ft | 265 kts | 305° |
| 2026-05-04 14:54 | 78.17038 | 16.05730 | 9478 ft | 264 kts | 304° |
| 2026-05-04 14:55 | 78.17978 | 15.98054 | 9206 ft | 263 kts | 304° |
| 2026-05-04 14:55 | 78.18911 | 15.90429 | 8953 ft | 261 kts | 304° |
| 2026-05-04 14:55 | 78.19834 | 15.82855 | 8691 ft | 259 kts | 304° |
| 2026-05-04 14:55 | 78.20749 | 15.75306 | 8424 ft | 257 kts | 304° |
| 2026-05-04 14:56 | 78.21659 | 15.67808 | 8195 ft | 256 kts | 305° |
| 2026-05-04 14:56 | 78.22553 | 15.60395 | 8081 ft | 249 kts | 305° |
| 2026-05-04 14:56 | 78.23422 | 15.53133 | 7973 ft | 244 kts | 305° |
| 2026-05-04 14:56 | 78.24271 | 15.46010 | 7858 ft | 239 kts | 305° |
| 2026-05-04 14:57 | 78.25111 | 15.39088 | 7709 ft | 234 kts | 309° |
| 2026-05-04 14:57 | 78.26062 | 15.32711 | 7522 ft | 230 kts | 313° |
| 2026-05-04 14:57 | 78.27039 | 15.26525 | 7287 ft | 228 kts | 313° |
| 2026-05-04 14:57 | 78.28001 | 15.20444 | 7080 ft | 231 kts | 313° |
| 2026-05-04 14:58 | 78.28999 | 15.14091 | 6869 ft | 239 kts | 313° |
| 2026-05-04 14:58 | 78.30022 | 15.07507 | 6619 ft | 243 kts | 314° |
| 2026-05-04 14:58 | 78.31043 | 15.00901 | 6388 ft | 242 kts | 314° |
| 2026-05-04 14:58 | 78.32052 | 14.94321 | 6115 ft | 240 kts | 313° |
| 2026-05-04 14:59 | 78.33054 | 14.87750 | 5876 ft | 238 kts | 312° |
| 2026-05-04 14:59 | 78.34044 | 14.81233 | 5658 ft | 237 kts | 312° |
| 2026-05-04 14:59 | 78.36030 | 14.68292 | 5196 ft | 236 kts | 304° |
| 2026-05-04 15:00 | 78.36429 | 14.60424 | 4984 ft | 242 kts | 270° |
| 2026-05-04 15:00 | 78.35966 | 14.52479 | 4731 ft | 241 kts | 239° |
| 2026-05-04 15:00 | 78.34838 | 14.46597 | 4473 ft | 233 kts | 209° |
| 2026-05-04 15:01 | 78.32829 | 14.43829 | 4146 ft | 221 kts | 172° |
| 2026-05-04 15:01 | 78.31393 | 14.45685 | 3919 ft | 209 kts | 144° |
| 2026-05-04 15:01 | 78.30293 | 14.50029 | 3696 ft | 198 kts | 124° |
| 2026-05-04 15:01 | 78.29763 | 14.55960 | 3567 ft | 191 kts | 92° |
| 2026-05-04 15:02 | 78.29528 | 14.62441 | 3527 ft | 194 kts | 104° |
| 2026-05-04 15:02 | 78.29081 | 14.68607 | 3329 ft | 186 kts | 102° |
| 2026-05-04 15:02 | 78.28750 | 14.74476 | 3077 ft | 169 kts | 100° |
| 2026-05-04 15:02 | 78.28446 | 14.79829 | 2846 ft | 157 kts | 100° |
| 2026-05-04 15:03 | 78.28157 | 14.84809 | 2636 ft | 145 kts | 100° |
| 2026-05-04 15:03 | 78.27894 | 14.89301 | 2442 ft | 130 kts | 100° |
| 2026-05-04 15:03 | 78.27652 | 14.93468 | 2268 ft | 127 kts | 99° |
| 2026-05-04 15:03 | 78.27410 | 14.97664 | 2075 ft | 127 kts | 100° |
| 2026-05-04 15:04 | 78.27167 | 15.01845 | 1885 ft | 127 kts | 100° |
| 2026-05-04 15:04 | 78.26925 | 15.06026 | 1686 ft | 127 kts | 101° |
| 2026-05-04 15:04 | 78.26684 | 15.10217 | 1473 ft | 127 kts | 102° |
| 2026-05-04 15:04 | 78.26443 | 15.14386 | 1270 ft | 127 kts | 102° |
| 2026-05-04 15:05 | 78.26206 | 15.18503 | 1080 ft | 125 kts | 103° |
| 2026-05-04 15:05 | 78.25970 | 15.22626 | 912 ft | 125 kts | 103° |
| 2026-05-04 15:05 | 78.25737 | 15.26713 | 736 ft | 124 kts | 104° |
| 2026-05-04 15:05 | 78.25502 | 15.30840 | 582 ft | 127 kts | 104° |
| 2026-05-04 15:06 | 78.25272 | 15.34978 | 423 ft | 124 kts | 105° |
| 2026-05-04 15:06 | 78.25041 | 15.39035 | 240 ft | 123 kts | 106° |
| 2026-05-04 15:06 | 78.24813 | 15.43020 | 92 ft | 117 kts | 104° |
| 2026-05-04 15:07 | 78.24498 | 15.48600 | 97 ft | 26 kts | 105° |
| 2026-05-04 15:07 | 78.24467 | 15.49161 | 94 ft | 17 kts | 97° |
| 2026-05-04 15:07 | 78.24532 | 15.49459 | 93 ft | 12 kts | 345° |
| 2026-05-04 15:07 | 78.24592 | 15.49207 | 94 ft | 10 kts | 317° |
| 2026-05-04 15:08 | 78.24605 | 15.49161 | 94 ft | 3 kts | 333° |
| 2026-05-04 15:08 | 78.24627 | 15.49230 | 95 ft | 6 kts | 68° |